Station info - map view · info · telemetry · weather · raw · status · beacons · messages · bulletins · browse · moving · my account
Callsign, ship name or locator: Clear       
It is possible to search using wildcards (*?) after a prefix. Example: OH*
APRS station OE3DMB-15 - show graphs
Map loading...
Comment: SNR=-8dB RSSI=-90db
Location: 48°01.62' N 16°23.01' E - locator JN88EA66AL - show map - static map
4.3 miles East bearing 79° from Traiskirchen, Politischer Bezirk Baden, Lower Austria, Austria [?]
5.6 miles East bearing 83° from Pfaffstätten, Politischer Bezirk Baden, Lower Austria, Austria
12.5 miles South bearing 178° from Vienna, Politischer Bezirk Wien (Stadt), Vienna, Austria
34.4 miles West bearing 256° from Bratislava, Bratislavský, Slovakia
Last position: 2021-06-05 05:49:34 EDT (9d 23h54m ago)
2021-06-05 11:49:34 CEST local time at Traiskirchen, Austria [?]
Altitude: 635 ft
Device: Unknown: Unknown
Last path: OE3DMB-15>APRS via qAS,OE3RVU-12
Positions stored: 63847
Other SSIDs: OE3DMB OE3DMB-12 OE3DMB-14 OE3DMB-1e OE3DMB-7 OE3DMB-DP
Stations near current position of OE3DMB-15 - show more
callsign distance last heard - EDT      callsign distance last heard - EDT
T0320488_178.6 yards 32°2021-06-07 21:03:58 OE3DMB-12211.8 yards 356°2021-06-15 05:41:17
T03204880.6 miles 264°2021-06-07 21:11:38 S12510340.7 miles 181°2021-06-07 10:26:56
S1251034_0.7 miles 182°2021-06-07 10:26:13 S1251167_3.1 miles 263°2021-05-19 22:17:15
T0530369_3.2 miles 310°2021-06-06 09:31:17 T05303693.3 miles 310°2021-06-06 09:31:30
OE1OWA-53.6 miles 270°2021-06-15 05:27:55 OE3KAS-DP3.6 miles 272°2021-06-15 05:16:04
S12511673.7 miles 260°2021-05-19 22:25:00 HQ OEVSV4.0 miles 326°2021-06-15 05:00:29
S12406764.2 miles 263°2021-06-09 09:35:30 S1240676_4.3 miles 262°2021-06-09 09:35:14
OE1EKG4.4 miles 242°2021-05-19 08:59:56 OE3HUS-84.5 miles 29°2021-05-16 20:06:48
OE3HUS-124.5 miles 28°2021-06-15 05:34:10 OE3KJN-104.6 miles 171°2021-06-15 05:39:03
T02509724.7 miles 338°2021-06-08 09:42:00 OE3KAS-Y4.7 miles 257°2021-05-21 13:37:53
Stations which heard OE3DMB-15 directly on radio –
callsign pkts first heard - EDT last heard longest (tx => rx) longest at - EDT
OE1XBR-10 16 2021-06-05 05:30:58 2021-06-05 05:49:34 JN88EA > JN88FE 11.5 miles 9° 2021-06-05 05:35:00
OE4DNS 1 2021-06-05 05:37:28 2021-06-05 05:37:28 JN88EA > JN87LV 26.1 miles 108° 2021-06-05 05:37:28
OE3XLU-12 18 2021-06-05 05:30:58 2021-06-05 05:49:34 JN88EA > JN88CC 8.9 miles 307° 2021-06-05 05:35:00
OE3XKR-12 16 2021-06-05 05:30:58 2021-06-05 05:48:03 JN88EA > JN88EN 38.3 miles 0° 2021-06-05 05:35:00
OE3RVU-12 20 2021-06-05 05:30:58 2021-06-05 05:49:34 JN88EA > JN88DC 7.1 miles 316° 2021-06-05 05:32:59
OE3XMC-13 20 2021-06-05 05:30:58 2021-06-05 05:49:34 JN88EA > JN88ED 10.3 miles 353° 2021-06-05 05:35:56
OE1NSU-12 14 2021-06-05 05:30:58 2021-06-05 05:47:33 JN88EA > JN88DD 10.7 miles 334° 2021-06-05 05:35:57
OE3XIA-12 18 2021-06-05 05:30:58 2021-06-05 05:49:34 JN88EA > JN88CF 17.4 miles 337° 2021-06-05 05:35:00
OE3DMB-12 20 2021-06-05 05:30:58 2021-06-05 05:49:34 JN88EA > JN88EA 0.9 miles 334° 2021-06-05 05:35:56
OE1SCS-14 1 2021-06-05 05:31:28 2021-06-05 05:31:28 JN88EA > JN88EE 11.8 miles 360° 2021-06-05 05:31:28
OE3XMC-14 1 2021-06-05 05:31:28 2021-06-05 05:31:28 JN88EA > JN88FD 9.2 miles 26° 2021-06-05 05:31:28
OE1XAW-10 17 2021-06-05 05:30:58 2021-06-05 05:48:03 JN88EA > JN88EE 11.4 miles 0° 2021-06-05 05:35:56
OE3XMC-16 19 2021-06-05 05:30:58 2021-06-05 05:49:34 JN88EA > JN88DF 14.8 miles 336° 2021-06-05 05:32:59
OE3XMC-17 3 2021-06-05 05:33:59 2021-06-05 05:42:00 JN88EA > JN88DE 12.5 miles 330° 2021-06-05 05:34:59
OE3XWU-10 8 2021-06-05 05:32:59 2021-06-05 05:49:03 JN88EA > JN77WM 40.5 miles 212° 2021-06-05 05:49:03
OE3XBB-10 8 2021-06-05 05:31:28 2021-06-05 05:46:01 JN88EA > JN88IJ 30.2 miles 32° 2021-06-05 05:31:28
OE3CGG-10 12 2021-06-05 05:30:58 2021-06-05 05:49:34 JN88EA > JN88DC 7.9 miles 325° 2021-06-05 05:31:59

Only position packets which were originated by the station are shown here. The range statistics show some extra long hops, because some digipeaters do not correctly add themselves to the digipeater path. Please check the raw packets.
About this site
This page shows real-time information collected from the Automatic Position Reporting System Internet network (APRS-IS). APRS is used by amateur (ham) radio operators to transmit real-time position information, weather data, telemetry and messages over the radio. A vehicle equipped with a GPS receiver, a VHF transmitter or HF transceiver and a small computer device called a tracker transmits it's location, speed and course in a small data packet, which is then received by a nearby iGate receiving site which forwards the packet on the Internet. Systems connected to the Internet can send information on the APRS-IS without a radio transmitter, or collect and display information transmitted anywhere in the world.
User guide · FAQ · Blog · Discussion group · Linking to aprs.fi · AIS sites · Service status · Database statistics · Advertising on aprs.fi · Technical details · API · Change log · Planned changes · Credits and thanks · Terms Of Service · iPhone/iPad APRS